Archival Weather

John F Kennedy Intl

New York, New York (KJFK)

Report from: Thursday, September 21, 2023 8:51 PM EDT
Current time: Sunday, February 25, 2024 4:39 PM EST

Current weather – Weather history – Daily summaries
Weather forecast

Temperature17.8°C (64.0°F)
Dew point11.7°C (53.1°F)
Winds Calm
Visibility10 mi. (16.1 km)
Clouds Few clouds 4,500 ft. (1,372 m)
Ceiling: Broken clouds 25,000 ft. (7,620 m)
Altimeter30.29 in.Hg (1026 mB)
Relative humidity68 %
Density altitude107 ft. (33 m)
Sea-level pressure102.6 kPa (1026 mB, 30.29 in.Hg)
Remarks Automated weather observing station with precipitation discriminator
Flight conditions Visual Meteorological Conditions
Raw dataKJFK 220051Z 00000KT 10SM FEW045 BKN250 18/12 A3029 RMK AO2 SLP256 T01780117
An error has occurred. This application may no longer respond until reloaded. Reload 🗙